Terminal Aerodrome Forecast
Issued by NWS Jackson, MS

Home | Current Version | Previous Version | Text Only | Print | Product List | Glossary On
Versions: 1 2 3 4 5 6 7 8 9 10 11 12 13
191
FTUS44 KJAN 240532
TAFHBG
TAF
KHBG 240532Z 2406/2506 VRB04KT P6SM SCT050 BKN070
     FM241100 00000KT 6SM BR SCT020 BKN035
     FM241300 04004KT P6SM SCT040 SCT150
     FM241800 06006KT P6SM VCTS SCT050CB BKN150=

USA.gov is the U.S. government's official web portal to all federal, state and local government web resources and services.